Time;durP1;ratioP1;P1;durP2;ratioP2;P2;SDS_P1;SDS_P2;PMS_P1;PMS_P2;Temp;Humidity;BMP_temperature;BMP_pressure;BME280_temperature;BME280_humidity;BME280_pressure;Samples;Min_cycle;Max_cycle;Signal;HPM_P1;HPM_P2
2021/11/23 00:02:16;;;;;;;6.25;5.38;;;1.40;99.90;;;;;;5046270;28;20205;-69
2021/11/23 00:04:42;;;;;;;5.05;4.65;;;1.40;99.90;;;;;;5046381;28;20522;-69
2021/11/23 00:07:09;;;;;;;5.78;4.93;;;1.40;99.90;;;;;;5046747;28;20231;-69
2021/11/23 00:09:37;;;;;;;5.03;4.40;;;1.30;99.90;;;;;;5047510;28;20209;-69
2021/11/23 00:12:05;;;;;;;6.05;5.55;;;1.30;99.90;;;;;;5044995;28;20208;-69
2021/11/23 00:14:31;;;;;;;6.80;5.35;;;1.20;99.90;;;;;;5046986;28;20209;-69
2021/11/23 00:16:58;;;;;;;6.38;5.78;;;1.20;99.90;;;;;;5046285;28;20282;-69
2021/11/23 00:19:25;;;;;;;6.57;5.40;;;1.10;99.90;;;;;;5046853;28;20205;-69
2021/11/23 00:21:51;;;;;;;5.90;5.30;;;1.10;99.90;;;;;;5046013;28;20768;-69
2021/11/23 00:24:18;;;;;;;5.57;5.07;;;1.10;99.90;;;;;;5046596;28;20971;-69
2021/11/23 00:26:46;;;;;;;6.88;6.13;;;1.10;99.90;;;;;;5046540;28;21066;-69
2021/11/23 00:29:13;;;;;;;6.00;5.40;;;1.10;99.90;;;;;;5046443;28;20204;-70
2021/11/23 00:31:40;;;;;;;6.03;5.40;;;1.10;99.90;;;;;;5046329;28;20906;-70
2021/11/23 00:34:07;;;;;;;6.25;5.40;;;1.00;99.90;;;;;;5045955;28;20228;-69
2021/11/23 00:36:33;;;;;;;6.13;5.53;;;1.00;99.90;;;;;;5046020;28;20278;-70
2021/11/23 00:39:00;;;;;;;6.15;5.60;;;1.00;99.90;;;;;;5046718;28;20259;-69
2021/11/23 00:41:27;;;;;;;5.70;5.10;;;1.00;99.90;;;;;;5045478;28;20225;-70
2021/11/23 00:43:55;;;;;;;6.22;5.63;;;1.00;99.90;;;;;;5046125;28;20204;-70
2021/11/23 00:46:21;;;;;;;5.70;5.20;;;1.00;99.90;;;;;;5046663;28;20943;-69
2021/11/23 00:48:48;;;;;;;6.18;5.57;;;1.00;99.90;;;;;;5045970;28;20573;-69
2021/11/23 00:51:16;;;;;;;6.43;5.78;;;1.00;99.90;;;;;;5046162;28;20197;-70
2021/11/23 00:53:42;;;;;;;5.93;5.32;;;0.90;99.90;;;;;;5046005;28;20208;-69
2021/11/23 00:56:09;;;;;;;8.35;6.38;;;0.90;99.90;;;;;;5046048;28;20271;-70
2021/11/23 00:58:36;;;;;;;7.45;5.82;;;0.90;99.90;;;;;;5046328;28;20229;-70
2021/11/23 01:01:05;;;;;;;6.75;5.75;;;0.90;99.90;;;;;;5046370;28;20221;-70
2021/11/23 01:03:32;;;;;;;5.63;5.03;;;0.90;99.90;;;;;;5046670;28;20209;-70
2021/11/23 01:05:59;;;;;;;6.38;5.75;;;0.90;99.90;;;;;;5046722;28;20540;-70
2021/11/23 01:08:27;;;;;;;6.85;5.35;;;0.80;99.90;;;;;;5046680;28;20274;-69
2021/11/23 01:10:54;;;;;;;7.63;6.10;;;0.80;99.90;;;;;;5049375;28;20223;-69
2021/11/23 01:13:21;;;;;;;6.68;5.97;;;0.80;99.90;;;;;;5050244;28;20208;-69
2021/11/23 01:15:48;;;;;;;6.90;6.18;;;0.80;99.90;;;;;;5049784;28;20209;-70
2021/11/23 01:18:18;;;;;;;7.90;5.80;;;0.70;99.90;;;;;;5049549;28;20278;-69
2021/11/23 01:20:45;;;;;;;6.13;5.53;;;0.70;99.90;;;;;;5049449;28;20320;-69
2021/11/23 01:23:12;;;;;;;7.40;6.30;;;0.70;99.90;;;;;;5050422;28;20201;-69
2021/11/23 01:25:38;;;;;;;6.93;5.55;;;0.70;99.90;;;;;;5050423;28;20201;-69
2021/11/23 01:28:05;;;;;;;6.10;5.50;;;0.60;99.90;;;;;;5050070;28;20233;-69
2021/11/23 01:30:32;;;;;;;6.35;5.75;;;0.60;99.90;;;;;;5049911;28;20197;-69
2021/11/23 01:32:58;;;;;;;7.30;6.30;;;0.60;99.90;;;;;;5048695;28;20309;-69
2021/11/23 01:35:26;;;;;;;7.43;6.70;;;0.60;99.90;;;;;;5048621;28;20264;-69
2021/11/23 01:37:53;;;;;;;9.07;6.68;;;0.60;99.90;;;;;;5048370;28;20228;-69
2021/11/23 01:40:20;;;;;;;6.95;6.25;;;0.60;99.90;;;;;;5049762;28;20217;-69
2021/11/23 01:42:48;;;;;;;7.03;6.32;;;0.60;99.90;;;;;;5048836;28;20219;-69
2021/11/23 01:45:15;;;;;;;6.78;6.10;;;0.60;99.90;;;;;;5049234;28;20209;-69
2021/11/23 01:47:42;;;;;;;6.38;5.78;;;0.60;99.90;;;;;;5042912;28;20221;-70
2021/11/23 01:50:11;;;;;;;7.07;6.38;;;0.60;99.90;;;;;;5041791;28;20201;-69
2021/11/23 01:55:08;;;;;;;7.00;6.30;;;0.50;99.90;;;;;;5117999;22;20269;-66
2021/11/23 01:57:35;;;;;;;9.13;5.63;;;0.50;99.90;;;;;;5087072;28;20223;-66
2021/11/23 02:00:03;;;;;;;5.95;5.30;;;0.50;99.90;;;;;;5092059;28;20207;-66
2021/11/23 02:02:30;;;;;;;6.65;5.68;;;0.50;99.90;;;;;;5091673;28;20229;-66
2021/11/23 02:04:56;;;;;;;6.43;5.70;;;0.40;99.90;;;;;;5092598;28;20698;-66
2021/11/23 02:07:23;;;;;;;6.70;6.10;;;0.40;99.90;;;;;;5092382;28;20288;-66
2021/11/23 02:09:51;;;;;;;6.40;5.80;;;0.40;99.90;;;;;;5092138;28;20207;-66
2021/11/23 02:12:19;;;;;;;8.15;6.45;;;0.40;99.90;;;;;;5092128;28;20200;-66
2021/11/23 02:14:46;;;;;;;5.43;4.93;;;0.40;99.90;;;;;;5092351;28;20207;-66
2021/11/23 02:17:12;;;;;;;6.65;5.35;;;0.40;99.90;;;;;;5092598;28;20250;-66
2021/11/23 02:19:39;;;;;;;6.53;5.72;;;0.30;99.90;;;;;;5091839;28;20195;-66
2021/11/23 02:22:07;;;;;;;6.50;5.80;;;0.30;99.90;;;;;;5091871;28;20227;-66
2021/11/23 02:24:34;;;;;;;7.53;6.63;;;0.30;99.90;;;;;;5092205;28;20207;-66
2021/11/23 02:27:01;;;;;;;6.10;5.50;;;0.30;99.90;;;;;;5092185;28;20223;-66
2021/11/23 02:29:28;;;;;;;8.48;6.15;;;0.30;99.90;;;;;;5092355;28;20200;-66
2021/11/23 02:31:54;;;;;;;7.55;6.10;;;0.30;99.90;;;;;;5091511;28;20203;-66
2021/11/23 02:34:21;;;;;;;6.60;5.82;;;0.20;99.90;;;;;;5092450;28;20206;-66
2021/11/23 02:36:48;;;;;;;7.43;5.65;;;0.20;99.90;;;;;;5091584;28;20219;-66
2021/11/23 02:39:16;;;;;;;6.85;6.15;;;0.20;99.90;;;;;;5092470;28;20196;-66
2021/11/23 02:41:42;;;;;;;6.45;5.45;;;0.10;99.90;;;;;;5091344;28;20573;-66
2021/11/23 02:44:09;;;;;;;6.97;5.95;;;0.10;99.90;;;;;;5092152;28;20248;-66
2021/11/23 02:46:36;;;;;;;7.05;6.35;;;0.10;99.90;;;;;;5091866;28;20292;-66
2021/11/23 02:49:03;;;;;;;7.35;6.45;;;0.00;99.90;;;;;;5091725;28;20577;-66
2021/11/23 02:51:33;;;;;;;8.40;6.80;;;0.00;99.90;;;;;;5091415;28;20207;-66
2021/11/23 02:54:00;;;;;;;6.28;5.45;;;0.00;99.90;;;;;;5091563;28;20230;-66
2021/11/23 02:56:28;;;;;;;7.38;6.13;;;0.00;99.90;;;;;;5091967;28;20695;-66
2021/11/23 02:58:55;;;;;;;6.82;6.13;;;0.00;99.90;;;;;;5091262;28;20211;-66
2021/11/23 03:01:24;;;;;;;7.15;6.45;;;0.00;99.90;;;;;;5091381;28;20227;-66
2021/11/23 03:03:54;;;;;;;6.82;6.05;;;-0.10;99.90;;;;;;5091481;28;20233;-66
2021/11/23 03:06:22;;;;;;;6.82;6.13;;;-0.10;99.90;;;;;;5091761;28;20207;-66
2021/11/23 03:08:51;;;;;;;6.50;5.90;;;-0.10;99.90;;;;;;5091491;28;20735;-66
2021/11/23 03:11:20;;;;;;;7.10;6.40;;;-0.20;99.90;;;;;;5090880;28;20211;-66
2021/11/23 03:13:48;;;;;;;7.60;6.90;;;-0.20;99.90;;;;;;5091381;28;20212;-65
2021/11/23 03:16:15;;;;;;;7.43;6.00;;;-0.20;99.90;;;;;;5091526;28;20195;-66
2021/11/23 03:18:42;;;;;;;7.35;5.90;;;-0.20;99.90;;;;;;5091374;28;20251;-66
2021/11/23 03:21:08;;;;;;;8.02;6.22;;;-0.10;99.90;;;;;;5090497;28;20222;-66
2021/11/23 03:23:35;;;;;;;7.53;5.82;;;-0.10;99.90;;;;;;5091427;28;20196;-66
2021/11/23 03:26:02;;;;;;;7.10;6.40;;;-0.10;99.90;;;;;;5091309;28;20212;-66
2021/11/23 03:28:28;;;;;;;7.07;6.38;;;-0.20;99.90;;;;;;5090858;28;20226;-66
2021/11/23 03:30:57;;;;;;;9.02;6.55;;;-0.20;99.90;;;;;;5090157;28;20208;-66
2021/11/23 03:33:23;;;;;;;6.78;6.07;;;-0.20;99.90;;;;;;5090730;28;20204;-66
2021/11/23 03:35:50;;;;;;;6.57;5.93;;;-0.20;99.90;;;;;;5091138;28;20567;-66
2021/11/23 03:38:17;;;;;;;7.20;6.20;;;-0.20;99.90;;;;;;5091072;28;20219;-66
2021/11/23 03:40:44;;;;;;;6.90;5.95;;;-0.30;99.90;;;;;;5090927;28;20211;-66
2021/11/23 03:43:13;;;;;;;8.05;5.78;;;-0.30;99.90;;;;;;5090424;28;20206;-66
2021/11/23 03:45:40;;;;;;;8.25;6.13;;;-0.30;99.90;;;;;;5090959;28;20207;-66
2021/11/23 03:48:09;;;;;;;7.68;6.68;;;-0.30;99.90;;;;;;5090916;28;20273;-66
2021/11/23 03:50:36;;;;;;;6.50;5.85;;;-0.30;99.90;;;;;;5090482;28;20204;-65
2021/11/23 03:53:02;;;;;;;6.25;5.60;;;-0.30;99.90;;;;;;5090309;28;20196;-66
2021/11/23 03:55:32;;;;;;;7.22;6.50;;;-0.40;99.90;;;;;;5090467;28;20234;-66
2021/11/23 03:58:01;;;;;;;7.03;6.30;;;-0.40;99.90;;;;;;5090420;28;20612;-66
2021/11/23 04:00:27;;;;;;;7.72;6.13;;;-0.40;99.90;;;;;;5090416;28;20262;-66
2021/11/23 04:02:55;;;;;;;6.32;5.65;;;-0.40;99.90;;;;;;5090145;28;20273;-66
2021/11/23 04:05:23;;;;;;;10.23;7.07;;;-0.50;99.90;;;;;;5090811;28;20292;-66
2021/11/23 04:07:51;;;;;;;8.82;6.80;;;-0.50;99.90;;;;;;5090033;28;20220;-66
2021/11/23 04:10:17;;;;;;;6.30;5.57;;;-0.50;99.90;;;;;;5090637;28;20666;-66
2021/11/23 04:12:46;;;;;;;7.47;6.10;;;-0.60;99.90;;;;;;5089771;28;20199;-66
2021/11/23 04:15:13;;;;;;;7.13;6.28;;;-0.60;99.90;;;;;;5090788;28;20250;-66
2021/11/23 04:17:39;;;;;;;7.68;6.13;;;-0.60;99.90;;;;;;5090201;28;20594;-66
2021/11/23 04:20:07;;;;;;;6.72;6.03;;;-0.60;99.90;;;;;;5090337;28;20261;-66
2021/11/23 04:22:38;;;;;;;7.20;6.45;;;-0.70;99.90;;;;;;5090087;28;20254;-66
2021/11/23 04:25:06;;;;;;;6.85;6.00;;;-0.70;99.90;;;;;;5089905;28;20253;-66
2021/11/23 04:27:33;;;;;;;7.95;7.15;;;-0.70;99.90;;;;;;5090266;28;20226;-66
2021/11/23 04:29:59;;;;;;;6.68;6.07;;;-0.80;99.90;;;;;;5089874;28;20671;-66
2021/11/23 04:32:26;;;;;;;6.72;5.65;;;-0.80;99.90;;;;;;5088513;28;20184;-66
2021/11/23 04:34:53;;;;;;;9.00;6.45;;;-0.80;99.90;;;;;;5089333;28;20321;-65
2021/11/23 04:37:19;;;;;;;7.65;6.22;;;-0.80;99.90;;;;;;5089155;28;20218;-66
2021/11/23 04:39:49;;;;;;;7.15;6.28;;;-0.80;99.90;;;;;;5089070;28;20568;-65
2021/11/23 04:42:16;;;;;;;8.00;6.68;;;-0.80;99.90;;;;;;5088630;28;20214;-66
2021/11/23 04:44:42;;;;;;;8.75;6.70;;;-0.80;99.90;;;;;;5093028;28;20204;-66
2021/11/23 04:47:09;;;;;;;8.48;7.55;;;-0.80;99.90;;;;;;5089916;28;20216;-66
2021/11/23 04:49:36;;;;;;;7.55;6.75;;;-0.80;99.90;;;;;;5093334;28;20203;-66
2021/11/23 04:52:03;;;;;;;7.88;6.00;;;-0.80;99.90;;;;;;5086732;28;20211;-66
2021/11/23 04:54:30;;;;;;;7.47;6.13;;;-0.80;99.90;;;;;;5087742;28;20198;-66
2021/11/23 04:56:58;;;;;;;8.32;7.40;;;-0.80;99.90;;;;;;5083527;28;20230;-66
2021/11/23 04:59:25;;;;;;;8.10;6.18;;;-0.90;99.90;;;;;;5092722;28;20218;-66
2021/11/23 05:01:51;;;;;;;6.55;5.80;;;-0.90;99.90;;;;;;5090114;28;21664;-66
2021/11/23 05:04:18;;;;;;;7.97;7.18;;;-0.90;99.90;;;;;;5092747;28;20200;-66
2021/11/23 05:06:45;;;;;;;8.10;6.78;;;-1.00;99.90;;;;;;5092948;28;20212;-67
2021/11/23 05:09:11;;;;;;;6.72;6.05;;;-1.00;99.90;;;;;;5092764;28;20257;-67
2021/11/23 05:11:40;;;;;;;8.20;6.35;;;-1.00;99.90;;;;;;5090592;28;20188;-66
2021/11/23 05:14:08;;;;;;;9.68;6.68;;;-1.00;99.90;;;;;;5092127;28;20305;-67
2021/11/23 05:16:35;;;;;;;7.57;6.15;;;-1.10;99.90;;;;;;5092154;28;20636;-67
2021/11/23 05:19:02;;;;;;;7.22;6.40;;;-1.10;99.90;;;;;;5091940;28;20196;-66
2021/11/23 05:21:28;;;;;;;9.20;8.30;;;-1.10;99.90;;;;;;5090974;28;20452;-66
2021/11/23 05:23:55;;;;;;;9.50;7.85;;;-1.10;99.90;;;;;;5091538;28;20663;-66
2021/11/23 05:26:22;;;;;;;8.15;6.85;;;-1.00;99.90;;;;;;5092182;28;20192;-66
2021/11/23 05:28:48;;;;;;;11.05;7.53;;;-1.10;99.90;;;;;;5091698;28;20206;-66
2021/11/23 05:31:16;;;;;;;8.50;7.25;;;-1.00;99.90;;;;;;5092749;28;20204;-66
2021/11/23 05:33:43;;;;;;;11.13;8.88;;;-0.80;99.90;;;;;;5092810;28;20207;-66
2021/11/23 05:36:10;;;;;;;9.73;7.47;;;-0.40;99.90;;;;;;5093034;28;20208;-66
2021/11/23 05:38:37;;;;;;;9.18;7.45;;;-0.30;99.90;;;;;;5093229;28;20247;-66
2021/11/23 05:41:03;;;;;;;8.35;7.32;;;-0.40;99.90;;;;;;5091673;28;20200;-66
2021/11/23 05:43:31;;;;;;;10.05;8.13;;;-0.50;99.90;;;;;;5093273;28;20216;-66
2021/11/23 05:45:58;;;;;;;9.02;7.55;;;-0.60;99.90;;;;;;5092257;28;20195;-66
2021/11/23 05:48:26;;;;;;;8.80;7.25;;;-0.80;99.90;;;;;;5093083;28;20640;-66
2021/11/23 05:50:53;;;;;;;9.18;8.27;;;-0.80;99.90;;;;;;5092112;28;20604;-66
2021/11/23 05:53:19;;;;;;;9.70;7.82;;;-0.90;99.90;;;;;;5092591;28;20200;-66
2021/11/23 05:55:46;;;;;;;9.05;7.50;;;-0.90;99.90;;;;;;5091739;28;20214;-66
2021/11/23 05:58:13;;;;;;;9.20;8.20;;;-0.90;99.90;;;;;;5092256;28;20220;-66
2021/11/23 06:00:40;;;;;;;9.20;8.27;;;-0.90;99.90;;;;;;5092599;28;20204;-66
2021/11/23 06:03:06;;;;;;;10.77;7.93;;;-1.00;99.90;;;;;;5091401;28;20226;-66
2021/11/23 06:05:34;;;;;;;7.93;7.10;;;-1.00;99.90;;;;;;5092844;28;20218;-66
2021/11/23 06:08:01;;;;;;;9.15;8.10;;;-1.00;99.90;;;;;;5092089;28;20229;-66
2021/11/23 06:10:28;;;;;;;9.15;7.63;;;-1.00;99.90;;;;;;5092107;28;20222;-66
2021/11/23 06:12:54;;;;;;;10.98;7.78;;;-1.00;99.90;;;;;;5091965;28;20214;-66
2021/11/23 06:15:21;;;;;;;9.52;7.75;;;-1.10;99.90;;;;;;5092125;28;20203;-66
2021/11/23 06:17:51;;;;;;;9.73;7.45;;;-1.10;99.90;;;;;;5092244;28;20226;-66
2021/11/23 06:20:18;;;;;;;12.32;8.38;;;-1.10;99.90;;;;;;5092181;28;20214;-65
2021/11/23 06:22:46;;;;;;;10.25;8.00;;;-1.10;99.90;;;;;;5091565;28;20219;-66
2021/11/23 06:25:12;;;;;;;9.63;8.02;;;-1.20;99.90;;;;;;5092127;28;20210;-66
2021/11/23 06:27:39;;;;;;;9.45;7.85;;;-1.20;99.90;;;;;;5091763;28;20601;-66
2021/11/23 06:30:08;;;;;;;8.93;7.30;;;-1.20;99.90;;;;;;5092029;28;20214;-66
2021/11/23 06:32:35;;;;;;;7.75;6.95;;;-1.10;99.90;;;;;;5091234;28;20290;-66
2021/11/23 06:35:02;;;;;;;8.77;7.88;;;-1.20;99.90;;;;;;5091861;28;20323;-66
2021/11/23 06:37:29;;;;;;;10.48;7.82;;;-1.20;99.90;;;;;;5091477;28;20319;-66
2021/11/23 06:39:57;;;;;;;11.60;8.23;;;-1.10;99.90;;;;;;5091706;28;20671;-66
2021/11/23 06:42:24;;;;;;;9.73;7.68;;;-1.10;99.90;;;;;;5091472;28;20254;-66
2021/11/23 06:44:51;;;;;;;8.75;7.60;;;-1.10;99.90;;;;;;5091094;28;20249;-66
2021/11/23 06:47:17;;;;;;;10.50;8.98;;;-1.10;99.90;;;;;;5091822;28;20219;-66
2021/11/23 06:49:44;;;;;;;10.75;7.82;;;-1.10;99.90;;;;;;5091194;28;20579;-66
2021/11/23 06:52:11;;;;;;;14.43;8.30;;;-1.10;99.90;;;;;;5090930;28;20725;-66
2021/11/23 06:54:38;;;;;;;9.35;8.20;;;-1.10;99.90;;;;;;5091166;28;20590;-66
2021/11/23 06:57:07;;;;;;;12.40;9.07;;;-1.10;99.90;;;;;;5091043;28;20261;-66
2021/11/23 06:59:34;;;;;;;11.98;8.30;;;-1.00;99.90;;;;;;5091607;28;20598;-66
2021/11/23 07:02:00;;;;;;;11.00;8.57;;;-1.00;99.90;;;;;;5087403;28;20206;-66
2021/11/23 07:04:27;;;;;;;10.98;8.02;;;-1.00;99.90;;;;;;5091078;28;20545;-66
2021/11/23 07:06:54;;;;;;;10.70;8.82;;;-1.00;99.90;;;;;;5090302;28;20218;-66
2021/11/23 07:09:21;;;;;;;9.32;7.82;;;-0.90;99.90;;;;;;5090947;28;20207;-66
2021/11/23 07:11:48;;;;;;;9.43;8.00;;;-0.90;99.90;;;;;;5090001;28;20564;-66
2021/11/23 07:14:16;;;;;;;11.30;8.63;;;-0.90;99.90;;;;;;5090619;28;20655;-66
2021/11/23 07:16:43;;;;;;;9.65;8.65;;;-0.90;99.90;;;;;;5090241;28;20736;-66
2021/11/23 07:19:10;;;;;;;10.60;8.38;;;-0.80;99.90;;;;;;5090076;28;20211;-65
2021/11/23 07:21:36;;;;;;;10.18;8.20;;;-0.80;99.90;;;;;;5090586;28;20203;-66
2021/11/23 07:24:04;;;;;;;11.45;9.27;;;-0.80;99.90;;;;;;5090241;28;20671;-66
2021/11/23 07:26:31;;;;;;;13.23;8.70;;;-0.80;99.90;;;;;;5091028;28;20200;-66
2021/11/23 07:28:58;;;;;;;11.85;8.35;;;-0.80;99.90;;;;;;5090652;28;20227;-65
2021/11/23 07:31:26;;;;;;;10.45;8.75;;;-0.70;99.90;;;;;;5090101;28;20199;-66
2021/11/23 07:33:53;;;;;;;10.93;8.90;;;-0.70;99.90;;;;;;5090592;28;20195;-66
2021/11/23 07:36:20;;;;;;;11.50;8.77;;;-0.70;99.90;;;;;;5090378;28;20666;-66
2021/11/23 07:38:47;;;;;;;8.63;7.55;;;-0.50;99.90;;;;;;5090513;28;20207;-66
2021/11/23 07:41:14;;;;;;;12.15;9.20;;;-0.30;99.90;;;;;;5089524;28;20200;-66
2021/11/23 07:43:40;;;;;;;10.60;8.40;;;0.00;99.90;;;;;;5090686;28;20220;-66
2021/11/23 07:46:07;;;;;;;10.82;8.98;;;0.30;99.90;;;;;;5090590;28;20229;-66
2021/11/23 07:48:37;;;;;;;9.90;8.55;;;0.40;99.90;;;;;;5090243;28;20223;-67
2021/11/23 07:51:03;;;;;;;12.75;8.32;;;0.60;99.90;;;;;;5090049;28;20635;-66
2021/11/23 07:53:30;;;;;;;10.68;8.95;;;0.90;99.90;;;;;;5111350;22;20202;-87
2021/11/23 07:55:57;;;;;;;11.38;7.68;;;1.10;99.90;;;;;;5051305;28;20586;-89
2021/11/23 07:58:24;;;;;;;9.52;8.25;;;1.30;99.90;;;;;;5053794;28;20221;-91
2021/11/23 08:00:55;;;;;;;10.30;8.38;;;1.50;99.90;;;;;;5053070;28;20220;-91
2021/11/23 08:03:25;;;;;;;8.40;7.55;;;1.90;99.90;;;;;;5053772;28;20286;-90
2021/11/23 08:05:53;;;;;;;8.52;7.72;;;2.50;99.90;;;;;;5053875;28;20268;-91
2021/11/23 08:08:20;;;;;;;10.95;9.10;;;3.20;99.90;;;;;;5053971;28;20205;-91
2021/11/23 08:10:47;;;;;;;12.27;7.47;;;3.90;99.90;;;;;;5053777;28;20207;-90
2021/11/23 08:13:15;;;;;;;7.40;6.70;;;4.60;99.90;;;;;;5054956;28;20288;-91
2021/11/23 08:15:42;;;;;;;8.50;6.38;;;5.30;99.90;;;;;;5053664;28;20220;-91
2021/11/23 08:18:10;;;;;;;7.97;7.18;;;6.10;99.90;;;;;;5053243;28;20225;-91
2021/11/23 08:20:37;;;;;;;8.40;7.50;;;7.10;99.90;;;;;;5053492;28;20199;-91
2021/11/23 08:23:06;;;;;;;7.13;6.43;;;8.00;99.90;;;;;;5052611;28;20224;-90
2021/11/23 08:25:34;;;;;;;8.10;6.80;;;8.90;99.90;;;;;;5053305;28;20233;-91
2021/11/23 08:28:00;;;;;;;7.18;6.50;;;9.60;99.90;;;;;;5053277;28;20228;-91
2021/11/23 08:30:30;;;;;;;6.40;5.85;;;10.20;99.90;;;;;;5054618;28;20204;-90
2021/11/23 08:32:57;;;;;;;5.90;5.40;;;10.60;99.90;;;;;;5054813;28;20193;-90
2021/11/23 08:35:26;;;;;;;7.15;5.88;;;11.00;99.90;;;;;;5054402;28;20220;-91
2021/11/23 08:37:57;;;;;;;6.82;6.13;;;11.40;99.80;;;;;;5056327;28;20207;-92
2021/11/23 08:40:25;;;;;;;7.15;6.55;;;11.50;99.20;;;;;;5061259;28;20189;-95
2021/11/23 08:46:00;;;;;;;7.28;5.75;;;11.70;98.50;;;;;;5075017;22;20293;-72
2021/11/23 08:48:27;;;;;;;6.00;5.50;;;11.70;98.30;;;;;;5069711;28;20638;-72
2021/11/23 08:50:53;;;;;;;6.13;5.53;;;11.60;98.20;;;;;;5069320;28;20208;-72
2021/11/23 08:53:20;;;;;;;6.72;6.13;;;11.60;98.40;;;;;;5069525;28;20203;-72
2021/11/23 08:55:48;;;;;;;6.47;5.88;;;11.40;98.50;;;;;;5070128;28;20201;-71
2021/11/23 08:58:15;;;;;;;6.25;5.70;;;11.20;98.30;;;;;;5069429;28;20769;-72
2021/11/23 09:00:43;;;;;;;6.40;5.90;;;11.30;98.30;;;;;;5069611;28;20745;-71
2021/11/23 09:03:10;;;;;;;6.50;6.00;;;12.20;97.70;;;;;;5053108;28;20675;-70
2021/11/23 09:05:37;;;;;;;6.20;5.70;;;13.50;96.30;;;;;;5049388;28;20623;-72
2021/11/23 09:08:04;;;;;;;5.65;5.18;;;14.60;95.10;;;;;;5049461;28;20228;-71
2021/11/23 09:10:34;;;;;;;6.28;5.78;;;15.70;93.80;;;;;;5049214;28;20201;-72
2021/11/23 09:13:04;;;;;;;5.93;5.47;;;16.30;92.80;;;;;;5049098;28;20201;-71
2021/11/23 09:15:31;;;;;;;6.57;5.77;;;17.00;92.30;;;;;;5048049;28;20192;-69
2021/11/23 09:18:01;;;;;;;6.03;5.53;;;17.60;91.30;;;;;;5067816;28;20481;-72
2021/11/23 09:20:34;;;;;;;6.27;5.77;;;17.40;90.70;;;;;;5068228;28;20843;-68
2021/11/23 09:23:02;;;;;;;6.50;5.63;;;17.50;90.50;;;;;;5067394;28;20489;-73
2021/11/23 09:25:30;;;;;;;5.63;5.13;;;17.80;90.40;;;;;;5068502;28;20529;-69
2021/11/23 09:27:59;;;;;;;6.17;5.67;;;17.80;90.00;;;;;;5067356;28;20521;-69
2021/11/23 09:30:29;;;;;;;5.60;5.13;;;17.80;90.30;;;;;;5070162;28;20524;-68
2021/11/23 09:32:57;;;;;;;6.00;5.40;;;17.40;90.20;;;;;;5071200;28;20838;-70
2021/11/23 09:35:24;;;;;;;6.00;5.50;;;17.30;90.70;;;;;;5070891;28;20476;-70
2021/11/23 09:37:51;;;;;;;5.57;5.00;;;17.00;90.80;;;;;;5071485;28;20832;-69
2021/11/23 09:40:19;;;;;;;5.63;5.13;;;16.80;90.90;;;;;;5071349;28;20466;-70
2021/11/23 09:42:47;;;;;;;6.20;5.70;;;16.60;91.10;;;;;;5070843;28;20459;-68
2021/11/23 09:45:15;;;;;;;6.70;6.20;;;16.40;92.00;;;;;;5071193;28;20953;-69
2021/11/23 09:47:45;;;;;;;6.80;6.30;;;16.50;91.50;;;;;;5064334;28;20556;-69
2021/11/23 09:50:12;;;;;;;6.40;5.77;;;16.50;90.90;;;;;;5054901;28;20847;-72
2021/11/23 09:52:40;;;;;;;6.33;5.43;;;16.70;90.90;;;;;;5071743;28;20466;-71
2021/11/23 09:55:08;;;;;;;6.10;5.50;;;17.20;90.90;;;;;;5072076;28;20462;-70
2021/11/23 09:57:35;;;;;;;6.87;5.90;;;17.70;89.30;;;;;;5069513;28;21060;-71
2021/11/23 10:00:04;;;;;;;5.57;5.13;;;18.50;88.60;;;;;;5051494;28;20467;-71
2021/11/23 10:02:33;;;;;;;6.27;5.77;;;18.70;89.90;;;;;;5051462;28;20503;-71
2021/11/23 10:05:05;;;;;;;6.67;5.70;;;19.10;89.10;;;;;;5050754;28;20480;-69
2021/11/23 10:07:36;;;;;;;5.97;5.47;;;19.60;87.40;;;;;;5051870;28;21193;-71
2021/11/23 10:10:11;;;;;;;5.67;5.17;;;19.80;87.10;;;;;;5051377;28;21166;-71
2021/11/23 10:12:38;;;;;;;6.10;5.53;;;20.20;86.00;;;;;;5050946;28;20992;-71
2021/11/23 10:15:14;;;;;;;6.43;5.13;;;19.90;86.60;;;;;;5051486;28;20843;-71
2021/11/23 10:17:42;;;;;;;5.67;5.23;;;19.80;87.30;;;;;;5051054;28;20515;-71
2021/11/23 10:23:12;;;;;;;5.70;5.20;;;19.80;86.40;;;;;;5126537;27;20525;-70
2021/11/23 10:25:39;;;;;;;5.30;4.90;;;19.40;86.90;;;;;;5128017;27;21035;-69
2021/11/23 10:28:07;;;;;;;5.87;5.23;;;19.70;88.00;;;;;;5112280;27;20477;-70
2021/11/23 10:30:34;;;;;;;5.40;5.00;;;19.20;87.40;;;;;;5107061;28;20841;-70
2021/11/23 10:33:00;;;;;;;5.40;4.70;;;18.90;86.50;;;;;;5107282;28;20453;-71
2021/11/23 10:35:28;;;;;;;5.67;5.17;;;18.90;86.40;;;;;;5106459;28;20456;-71
2021/11/23 10:37:55;;;;;;;4.43;4.10;;;18.80;85.70;;;;;;5107010;28;20477;-71
2021/11/23 10:40:27;;;;;;;4.37;4.00;;;19.20;86.80;;;;;;5107060;28;20819;-71
2021/11/23 10:42:55;;;;;;;4.00;3.60;;;19.40;84.70;;;;;;5106174;28;20537;-71
2021/11/23 10:45:23;;;;;;;4.90;4.47;;;19.50;85.00;;;;;;5107286;28;20456;-70
2021/11/23 10:47:51;;;;;;;4.23;3.93;;;19.50;84.70;;;;;;5106089;28;21045;-71
2021/11/23 10:50:19;;;;;;;4.20;3.90;;;18.90;86.10;;;;;;5106861;28;20940;-71
2021/11/23 10:52:48;;;;;;;4.63;4.27;;;19.00;85.60;;;;;;5106137;28;20461;-70
2021/11/23 10:55:33;;;;;;;4.63;4.20;;;19.00;85.40;;;;;;5106635;28;20993;-71
2021/11/23 10:58:13;;;;;;;3.93;3.63;;;18.70;85.00;;;;;;5106074;28;21006;-70
2021/11/23 11:00:49;;;;;;;4.17;3.87;;;18.50;85.50;;;;;;5105695;28;20464;-71
2021/11/23 11:03:17;;;;;;;4.80;4.30;;;18.20;85.40;;;;;;5101443;28;20820;-71
2021/11/23 11:05:45;;;;;;;5.00;4.23;;;18.20;85.60;;;;;;5092842;28;20479;-69
2021/11/23 11:08:14;;;;;;;4.60;4.20;;;18.10;84.10;;;;;;5085590;28;20895;-71
2021/11/23 11:10:43;;;;;;;5.60;4.27;;;17.70;86.40;;;;;;5085956;28;20946;-70
2021/11/23 11:13:12;;;;;;;4.40;4.00;;;17.80;86.40;;;;;;5084679;28;20446;-71
2021/11/23 11:15:44;;;;;;;5.00;4.50;;;17.80;86.20;;;;;;5085938;28;20461;-70
2021/11/23 11:18:12;;;;;;;4.43;3.90;;;17.90;87.10;;;;;;5084780;28;20474;-69
2021/11/23 11:20:45;;;;;;;4.77;4.37;;;17.90;84.70;;;;;;5085361;28;20460;-70
2021/11/23 11:23:14;;;;;;;4.33;3.90;;;17.70;87.50;;;;;;5084913;28;21005;-70
2021/11/23 11:25:56;;;;;;;4.23;3.93;;;17.70;85.30;;;;;;5085450;28;20489;-70
2021/11/23 11:28:45;;;;;;;4.13;3.73;;;17.10;85.60;;;;;;5084934;28;20481;-70
2021/11/23 11:31:33;;;;;;;4.07;3.67;;;16.90;87.10;;;;;;5084418;28;20461;-71
2021/11/23 11:34:31;;;;;;;4.00;3.70;;;16.40;87.30;;;;;;5073587;28;20893;-70
2021/11/23 11:37:01;;;;;;;5.07;3.60;;;15.80;88.00;;;;;;5008869;28;20472;-69
2021/11/23 11:39:54;;;;;;;5.20;3.90;;;15.50;88.80;;;;;;5059227;28;20829;-68
2021/11/23 11:43:03;;;;;;;4.13;3.73;;;15.40;88.90;;;;;;5070789;28;20488;-70
2021/11/23 11:45:45;;;;;;;4.57;4.17;;;15.20;89.20;;;;;;5070980;28;20462;-70
2021/11/23 11:48:47;;;;;;;4.03;3.70;;;15.00;90.30;;;;;;5076736;28;20534;-70
2021/11/23 11:51:26;;;;;;;4.23;3.93;;;14.60;90.10;;;;;;5092209;28;20457;-69
2021/11/23 11:53:54;;;;;;;4.40;4.10;;;14.60;90.20;;;;;;5092442;28;20457;-68
2021/11/23 11:56:56;;;;;;;4.67;4.27;;;14.40;90.80;;;;;;5092220;28;20457;-69
2021/11/23 11:59:34;;;;;;;4.93;4.40;;;14.50;90.90;;;;;;5087951;28;20461;-68
2021/11/23 12:02:07;;;;;;;6.30;4.33;;;14.50;90.60;;;;;;5089894;28;20481;-69
2021/11/23 12:04:54;;;;;;;5.13;4.10;;;14.40;90.70;;;;;;5091939;28;20481;-70
2021/11/23 12:07:21;;;;;;;4.77;4.30;;;14.20;90.70;;;;;;5088908;28;20481;-70
2021/11/23 12:09:51;;;;;;;4.53;4.13;;;14.10;90.80;;;;;;5077138;28;20462;-69
2021/11/23 12:12:43;;;;;;;10.23;5.00;;;13.80;91.00;;;;;;5069326;28;21138;-69
2021/11/23 12:15:47;;;;;;;5.80;5.30;;;13.50;91.40;;;;;;5071682;28;20830;-71
2021/11/23 12:18:53;;;;;;;4.55;4.15;;;13.10;91.70;;;;;;5053601;28;20499;-72
2021/11/23 12:21:24;;;;;;;6.63;5.20;;;13.00;91.80;;;;;;5071860;28;20208;-71
2021/11/23 12:23:55;;;;;;;5.75;5.15;;;12.70;91.80;;;;;;5076694;28;20469;-71
2021/11/23 12:26:25;;;;;;;5.53;4.80;;;12.60;92.00;;;;;;5073693;28;20565;-71
2021/11/23 12:28:57;;;;;;;5.75;5.20;;;12.40;91.90;;;;;;5075564;28;20313;-69
2021/11/23 12:31:26;;;;;;;5.25;4.75;;;12.30;92.40;;;;;;5070613;28;20287;-72
2021/11/23 12:33:58;;;;;;;6.72;4.93;;;12.20;92.30;;;;;;5071186;28;20196;-71
2021/11/23 12:36:26;;;;;;;5.15;4.65;;;12.20;92.30;;;;;;5071388;28;20629;-71
2021/11/23 12:38:54;;;;;;;4.40;4.00;;;12.10;92.80;;;;;;5070707;28;20213;-70
2021/11/23 12:41:23;;;;;;;4.03;3.72;;;12.20;92.40;;;;;;5070488;28;20200;-71
2021/11/23 12:43:51;;;;;;;5.57;4.93;;;12.20;92.50;;;;;;5070242;28;20587;-71
2021/11/23 12:46:20;;;;;;;4.85;4.45;;;12.20;92.50;;;;;;5070201;28;20197;-70
2021/11/23 12:48:51;;;;;;;4.80;4.40;;;12.10;92.30;;;;;;5070364;28;20308;-71
2021/11/23 12:51:22;;;;;;;4.10;3.80;;;12.10;92.40;;;;;;5070016;28;20265;-70
2021/11/23 12:53:53;;;;;;;5.03;4.13;;;11.90;92.50;;;;;;5070441;28;20238;-70
2021/11/23 12:56:21;;;;;;;4.85;4.20;;;11.60;93.00;;;;;;5070473;28;20205;-71
2021/11/23 12:58:48;;;;;;;5.50;3.75;;;11.50;93.40;;;;;;5070992;28;20663;-71
2021/11/23 13:01:25;;;;;;;5.10;4.60;;;11.50;92.80;;;;;;5086589;28;20900;-71
2021/11/23 13:03:54;;;;;;;4.30;3.90;;;11.40;93.00;;;;;;5070146;28;20223;-71
2021/11/23 13:06:22;;;;;;;7.13;3.97;;;11.30;93.20;;;;;;5071034;28;20212;-71